createdAt,value
2022-10-01T00:03:56.869Z,11.96
2022-10-01T00:09:09.117Z,12.02
2022-10-01T00:14:21.426Z,12.01
2022-10-01T00:19:33.663Z,11.89
2022-10-01T00:24:46.410Z,11.81
2022-10-01T00:29:58.717Z,11.72
2022-10-01T00:35:10.892Z,11.64
2022-10-01T00:40:23.157Z,11.48
2022-10-01T00:45:35.433Z,11.39
2022-10-01T00:50:47.800Z,11.42
2022-10-01T00:56:00.272Z,11.45
2022-10-01T01:01:12.696Z,11.43
2022-10-01T01:06:24.973Z,11.35
2022-10-01T01:11:37.197Z,11.28
2022-10-01T01:16:49.429Z,11.28
2022-10-01T01:22:01.854Z,11.11
2022-10-01T01:27:14.187Z,11.07
2022-10-01T01:32:26.599Z,11.1
2022-10-01T01:37:38.992Z,11.2
2022-10-01T01:42:51.348Z,11.27
2022-10-01T01:48:03.509Z,11.33
2022-10-01T01:53:15.864Z,11.35
2022-10-01T01:58:28.069Z,11.37
2022-10-01T02:03:40.240Z,11.38
2022-10-01T02:08:52.638Z,11.38
2022-10-01T02:14:04.859Z,11.35
2022-10-01T02:19:17.119Z,11.3
2022-10-01T02:24:29.302Z,11.31
2022-10-01T02:29:41.524Z,11.3
2022-10-01T02:34:53.935Z,11.32
2022-10-01T02:40:06.104Z,11.3
2022-10-01T02:45:18.420Z,11.26
2022-10-01T02:50:30.752Z,11.21
2022-10-01T02:55:43.150Z,11.2
2022-10-01T03:00:55.450Z,11.17
2022-10-01T03:06:07.888Z,11.18
2022-10-01T03:11:20.130Z,11.19
2022-10-01T03:16:32.240Z,11.15
2022-10-01T03:21:44.633Z,11.15
2022-10-01T03:26:56.834Z,11.16
2022-10-01T03:32:09.213Z,11.09
2022-10-01T03:37:21.497Z,11.08
2022-10-01T03:42:33.737Z,11.08
2022-10-01T03:47:45.985Z,11.07
2022-10-01T03:52:58.283Z,11.08
2022-10-01T03:58:10.612Z,11.06
2022-10-01T04:03:23.252Z,11.09
2022-10-01T04:08:35.563Z,11.12
2022-10-01T04:13:47.954Z,11.1
2022-10-01T04:19:00.207Z,11.1
2022-10-01T04:30:40.037Z,11.19
2022-10-01T04:35:52.358Z,11.07
2022-10-01T04:41:04.490Z,11
2022-10-01T04:46:16.896Z,10.98
2022-10-01T04:51:29.417Z,11
2022-10-01T04:56:41.740Z,11.01
2022-10-01T05:01:54.079Z,11.01
2022-10-01T05:07:06.468Z,11.02
2022-10-01T05:12:22.410Z,10.96
2022-10-01T05:17:31.188Z,10.92
2022-10-01T05:22:43.401Z,10.9
2022-10-01T05:27:55.819Z,10.85
2022-10-01T05:33:08.204Z,10.83
2022-10-01T05:38:20.456Z,10.85
2022-10-01T05:43:32.738Z,10.88
2022-10-01T05:48:45.071Z,10.89
2022-10-01T05:53:57.491Z,10.91
2022-10-01T05:59:09.816Z,10.98
2022-10-01T06:04:22.245Z,11
2022-10-01T06:09:34.598Z,11
2022-10-01T06:14:46.996Z,10.98
2022-10-01T06:19:59.325Z,11
2022-10-01T06:25:11.734Z,11.1
2022-10-01T06:30:24.269Z,11.16
2022-10-01T06:35:36.689Z,11.24
2022-10-01T06:40:48.946Z,11.27
2022-10-01T06:46:01.305Z,11.33
2022-10-01T06:51:13.570Z,11.4
2022-10-01T06:56:26.009Z,11.42
2022-10-01T07:01:38.727Z,11.44
2022-10-01T07:06:50.818Z,11.47
2022-10-01T07:12:03.649Z,11.57
2022-10-01T07:17:15.928Z,11.62
2022-10-01T07:22:28.282Z,11.67
2022-10-01T07:27:40.604Z,11.71
2022-10-01T07:32:52.849Z,11.75
2022-10-01T07:38:05.163Z,11.84
2022-10-01T07:43:18.218Z,11.96
2022-10-01T07:48:30.303Z,12.07
2022-10-01T07:53:42.684Z,12.14
2022-10-01T07:58:55.159Z,12.19
2022-10-01T08:04:07.717Z,12.27
2022-10-01T08:09:20.476Z,12.35
2022-10-01T08:14:32.898Z,12.44
2022-10-01T08:19:45.216Z,12.48
2022-10-01T08:24:57.531Z,12.53
2022-10-01T08:30:09.989Z,12.55
2022-10-01T08:35:22.281Z,12.63
2022-10-01T08:40:34.730Z,12.73
2022-10-01T08:45:47.100Z,12.83
2022-10-01T08:50:59.433Z,12.97
2022-10-01T08:56:11.938Z,13.07
2022-10-01T09:01:24.263Z,13.12
2022-10-01T09:06:36.423Z,13.22
2022-10-01T09:11:48.645Z,13.29
2022-10-01T09:17:01.097Z,13.37
2022-10-01T09:22:13.589Z,13.51
2022-10-01T09:27:25.801Z,13.65
2022-10-01T09:32:38.141Z,13.78
2022-10-01T09:37:50.766Z,13.85
2022-10-01T09:43:03.043Z,13.87
2022-10-01T09:53:27.838Z,13.73
2022-10-01T09:58:39.927Z,13.56
2022-10-01T10:03:52.362Z,13.44
2022-10-01T10:09:04.568Z,13.31
2022-10-01T10:14:16.954Z,13.22
2022-10-01T10:19:29.173Z,13.07
2022-10-01T10:24:41.458Z,13.02
2022-10-01T10:29:53.873Z,12.84
2022-10-01T10:35:06.262Z,12.71
2022-10-01T10:40:18.548Z,12.61
2022-10-01T10:45:30.766Z,12.54
2022-10-01T10:50:43.231Z,12.54
2022-10-01T10:55:55.611Z,12.46
2022-10-01T11:01:07.391Z,12.4
2022-10-01T11:06:19.574Z,12.37
2022-10-01T11:11:31.802Z,12.4
2022-10-01T11:16:44.215Z,12.4
2022-10-01T11:21:56.555Z,12.44
2022-10-01T11:27:08.956Z,12.45
2022-10-01T11:32:21.177Z,12.45
2022-10-01T11:37:33.507Z,12.43
2022-10-01T11:42:45.705Z,12.43
2022-10-01T11:47:58.449Z,12.43
2022-10-01T11:53:10.615Z,12.36
2022-10-01T11:58:22.884Z,12.19
2022-10-01T12:03:35.113Z,12.24
2022-10-01T12:08:47.202Z,12.23
2022-10-01T12:13:59.535Z,12.32
2022-10-01T12:19:12.221Z,12.32
2022-10-01T12:24:24.628Z,12.3
2022-10-01T12:29:37.131Z,12.12
2022-10-01T12:34:53.954Z,11.97
2022-10-01T12:40:01.695Z,11.89
2022-10-01T12:45:13.884Z,11.84
2022-10-01T12:50:26.196Z,11.87
2022-10-01T12:55:38.280Z,11.84
2022-10-01T13:00:50.823Z,11.81
2022-10-01T13:06:03.346Z,11.86
2022-10-01T13:11:16.055Z,11.95
2022-10-01T13:16:28.266Z,12.04
2022-10-01T13:21:40.514Z,12.04
2022-10-01T13:26:52.847Z,12.07
2022-10-01T13:32:05.108Z,12.05
2022-10-01T13:37:17.387Z,12.14
2022-10-01T13:42:29.870Z,12.25
2022-10-01T13:47:42.083Z,12.31
2022-10-01T13:52:54.404Z,12.34
2022-10-01T13:58:06.915Z,12.42
2022-10-01T14:03:19.249Z,12.45
2022-10-01T14:08:31.662Z,12.5
2022-10-01T14:13:44.120Z,12.52
2022-10-01T14:18:56.545Z,12.54
2022-10-01T14:24:09.258Z,12.55
2022-10-01T14:29:21.498Z,12.56
2022-10-01T14:34:34.483Z,12.6
2022-10-01T14:39:46.891Z,12.63
2022-10-01T14:44:59.186Z,12.65
2022-10-01T14:50:11.479Z,12.64
2022-10-01T14:55:23.955Z,12.68
2022-10-01T15:00:36.372Z,12.71
2022-10-01T15:05:48.887Z,12.75
2022-10-01T15:11:01.307Z,12.76
2022-10-01T15:16:13.625Z,12.81
2022-10-01T15:21:25.919Z,12.85
2022-10-01T15:26:38.139Z,12.85
2022-10-01T15:37:03.026Z,12.9
2022-10-01T15:42:15.435Z,13.08
2022-10-01T15:47:27.951Z,13.58
2022-10-01T15:52:40.694Z,14.3
2022-10-01T15:57:52.913Z,14.58
2022-10-01T16:03:05.391Z,15.14
2022-10-01T16:08:18.092Z,15.34
2022-10-01T16:13:30.304Z,15.14
2022-10-01T16:18:42.425Z,14.77
2022-10-01T16:23:54.854Z,14.47
2022-10-01T16:29:07.067Z,14.24
2022-10-01T16:34:19.382Z,13.99
2022-10-01T16:39:31.702Z,13.85
2022-10-01T16:44:44.142Z,13.71
2022-10-01T16:49:56.449Z,13.54
2022-10-01T16:55:08.714Z,13.42
2022-10-01T17:00:20.863Z,13.22
2022-10-01T17:05:33.409Z,13.08
2022-10-01T17:10:45.537Z,13.05
2022-10-01T17:15:57.965Z,13.03
2022-10-01T17:21:10.195Z,13.05
2022-10-01T17:26:22.548Z,13.04
2022-10-01T17:31:34.782Z,13.06
2022-10-01T17:36:47.169Z,13.06
2022-10-01T17:41:59.530Z,13.06
2022-10-01T17:47:11.899Z,13.06
2022-10-01T17:52:24.238Z,13
2022-10-01T17:57:36.377Z,12.99
2022-10-01T18:02:48.736Z,13.03
2022-10-01T18:08:01.006Z,13
2022-10-01T18:13:13.333Z,13
2022-10-01T18:19:46.017Z,12.99
2022-10-01T18:23:38.149Z,13.01
2022-10-01T18:28:50.747Z,13.03
2022-10-01T18:34:02.807Z,13.1
2022-10-01T18:39:15.236Z,13.15
2022-10-01T18:44:27.574Z,13.21
2022-10-01T18:49:39.799Z,13.24
2022-10-01T18:54:52.117Z,13.22
2022-10-01T19:00:04.256Z,13.19
2022-10-01T19:05:16.560Z,13.19
2022-10-01T19:10:28.765Z,13.18
2022-10-01T19:15:41.006Z,13.14
2022-10-01T19:20:53.203Z,13.13
2022-10-01T19:26:05.356Z,13.09
2022-10-01T19:31:17.907Z,13.01
2022-10-01T19:36:33.717Z,12.96
2022-10-01T19:41:42.417Z,12.88
2022-10-01T19:46:54.704Z,12.8
2022-10-01T19:52:06.942Z,12.74
2022-10-01T19:57:19.373Z,12.68
2022-10-01T20:02:31.706Z,12.58
2022-10-01T20:07:43.935Z,12.47
2022-10-01T20:12:56.148Z,12.39
2022-10-01T20:18:08.274Z,12.3
2022-10-01T20:23:20.349Z,12.25
2022-10-01T20:28:32.972Z,12.18
2022-10-01T20:33:45.155Z,12.14
2022-10-01T20:38:57.657Z,12.09
2022-10-01T20:44:11.124Z,12.01
2022-10-01T20:44:26.465Z,12.04
2022-10-01T20:49:36.353Z,12
2022-10-01T20:54:48.374Z,11.92
2022-10-01T21:00:00.713Z,11.85
2022-10-01T21:05:12.928Z,11.78
2022-10-01T21:10:25.299Z,11.73
2022-10-01T21:15:37.536Z,11.7
2022-10-01T21:20:49.867Z,11.7
2022-10-01T21:26:02.154Z,11.66
2022-10-01T21:31:14.659Z,11.63
2022-10-01T21:36:26.856Z,11.61
2022-10-01T21:41:39.005Z,11.61
2022-10-01T21:46:51.368Z,11.61
2022-10-01T21:52:03.632Z,11.63
2022-10-01T21:57:15.986Z,11.63
2022-10-01T22:02:28.533Z,11.63
2022-10-01T22:07:40.680Z,11.61
2022-10-01T22:12:52.984Z,11.6
2022-10-01T22:18:05.208Z,11.58
2022-10-01T22:23:17.683Z,11.55
2022-10-01T22:28:30.244Z,11.55
2022-10-01T22:33:42.270Z,11.53
2022-10-01T22:38:54.620Z,11.5
2022-10-01T22:44:07.033Z,11.49
2022-10-01T22:49:19.347Z,11.48
2022-10-01T22:54:31.839Z,11.47
2022-10-01T22:59:47.590Z,11.46
2022-10-01T23:05:00.358Z,11.47
2022-10-01T23:10:12.577Z,11.44
2022-10-01T23:15:25.061Z,11.42
2022-10-01T23:20:37.283Z,11.41
2022-10-01T23:25:49.637Z,11.39
2022-10-01T23:31:01.846Z,11.37
2022-10-01T23:36:14.669Z,11.37
2022-10-01T23:41:27.008Z,11.38
2022-10-01T23:46:39.273Z,11.41
2022-10-01T23:51:51.522Z,11.43
2022-10-01T23:57:03.695Z,11.48
